createdAt,value
2019-02-26T12:14:42.711Z,46.50
2019-02-26T12:17:11.098Z,47.00
2019-02-26T12:19:41.117Z,47.00
2019-02-26T12:22:11.021Z,47.00
2019-02-26T12:24:40.972Z,46.90
2019-02-26T12:27:16.224Z,46.80
2019-02-26T12:29:43.641Z,46.80
2019-02-26T12:32:14.572Z,46.50
2019-02-26T12:34:47.743Z,46.30
2019-02-26T12:37:16.456Z,46.00
2019-02-26T12:39:47.339Z,46.10
2019-02-26T12:42:18.733Z,46.00
2019-02-26T12:44:49.712Z,45.70
2019-02-26T12:47:21.796Z,45.60
2019-02-26T12:49:51.017Z,45.20
2019-02-26T12:52:23.597Z,45.00
2019-02-26T12:54:54.871Z,44.90
2019-02-26T12:57:26.930Z,44.70
2019-02-26T12:59:55.763Z,44.60
2019-02-26T13:02:25.894Z,44.60
2019-02-26T13:04:55.969Z,44.50
2019-02-26T13:07:26.315Z,44.40
2019-02-26T13:10:02.065Z,44.30
2019-02-26T13:12:31.515Z,44.30
2019-02-26T13:15:04.794Z,44.30
2019-02-26T13:17:32.479Z,44.20
2019-02-26T13:20:05.750Z,44.20
2019-02-26T13:22:34.100Z,44.10
2019-02-26T13:25:13.295Z,44.10
2019-02-26T13:27:38.784Z,44.10
2019-02-26T13:30:11.821Z,44.00
2019-02-26T13:32:55.303Z,44.00
2019-02-26T13:35:13.786Z,43.90
2019-02-26T13:37:44.369Z,43.90
2019-02-26T13:40:20.388Z,43.90
2019-02-26T13:45:25.994Z,43.90
2019-02-26T13:48:01.054Z,43.90
2019-02-26T13:50:29.187Z,43.90
2019-02-26T13:53:00.182Z,43.80
2019-02-26T13:55:30.203Z,43.70
2019-02-26T13:58:00.069Z,43.70
2019-02-26T14:00:30.033Z,43.70
2019-02-26T14:03:00.075Z,43.80
2019-02-26T14:05:37.842Z,43.70
2019-02-26T14:08:01.961Z,43.70
2019-02-26T14:10:31.847Z,43.70
2019-02-26T14:13:03.772Z,43.60
2019-02-26T14:15:33.745Z,43.60
2019-02-26T14:18:03.663Z,43.70
2019-02-26T14:20:33.652Z,43.60
2019-02-26T14:23:03.591Z,43.60
2019-02-26T14:25:33.391Z,43.50
2019-02-26T14:28:03.425Z,43.50
2019-02-26T14:30:33.513Z,43.50
2019-02-26T14:33:03.466Z,43.50
2019-02-26T14:35:33.647Z,43.50
2019-02-26T14:38:04.485Z,43.50
2019-02-26T14:40:34.403Z,43.40
2019-02-26T14:43:04.553Z,43.50
2019-02-26T14:45:35.388Z,43.50
2019-02-26T14:48:05.526Z,43.40
2019-02-26T14:50:35.388Z,43.40
2019-02-26T14:53:05.200Z,43.40
2019-02-26T14:55:35.123Z,43.40
2019-02-26T14:58:05.473Z,43.40
2019-02-26T15:00:35.770Z,43.40
2019-02-26T15:03:05.894Z,43.30
2019-02-26T15:05:35.702Z,43.30
2019-02-26T15:08:05.507Z,43.30
2019-02-26T15:10:35.430Z,43.40
2019-02-26T15:13:05.852Z,43.30
2019-02-26T15:15:35.801Z,43.40
2019-02-26T15:18:05.682Z,43.40
2019-02-26T15:20:35.600Z,43.30
2019-02-26T15:23:05.849Z,43.30
2019-02-26T15:25:35.733Z,43.30
2019-02-26T15:28:05.718Z,43.30
2019-02-26T15:30:35.796Z,43.30
2019-02-26T15:33:11.011Z,43.30
2019-02-26T15:35:37.343Z,43.40
2019-02-26T15:38:07.222Z,43.40
2019-02-26T15:40:37.103Z,43.40
2019-02-26T15:43:07.390Z,43.40
2019-02-26T15:45:37.507Z,43.50
2019-02-26T15:48:07.454Z,43.30
2019-02-26T15:50:37.670Z,43.30
2019-02-26T15:53:08.907Z,43.30
2019-02-26T15:55:38.803Z,43.30
2019-02-26T15:58:08.625Z,43.40
2019-02-26T16:00:38.560Z,43.40
2019-02-26T16:03:08.553Z,43.40
2019-02-26T16:05:40.470Z,43.40
2019-02-26T16:08:10.494Z,43.30
2019-02-26T16:10:40.885Z,43.30
2019-02-26T16:13:11.994Z,43.30
2019-02-26T16:15:42.220Z,43.20
2019-02-26T16:18:12.124Z,43.20
2019-02-26T16:20:42.079Z,43.10
2019-02-26T16:23:11.997Z,43.00
2019-02-26T16:25:41.847Z,43.00
2019-02-26T16:28:12.232Z,42.90
2019-02-26T16:30:42.455Z,43.00
2019-02-26T16:33:13.739Z,43.00
2019-02-26T16:35:44.233Z,42.90
2019-02-26T16:38:14.730Z,42.90
2019-02-26T16:40:44.958Z,43.00
2019-02-26T16:43:17.153Z,43.00
2019-02-26T16:45:46.355Z,42.90
2019-02-26T16:48:16.262Z,43.10
2019-02-26T16:50:46.132Z,43.10
2019-02-26T16:53:16.809Z,43.70
2019-02-26T16:55:49.052Z,43.00
2019-02-26T16:58:18.583Z,43.00
2019-02-26T17:00:48.892Z,43.00
2019-02-26T17:03:20.563Z,43.00
2019-02-26T17:05:50.455Z,43.10
2019-02-26T17:08:20.494Z,43.10
2019-02-26T17:10:50.511Z,43.00
2019-02-26T17:13:20.326Z,43.40
2019-02-26T17:15:51.263Z,43.10
2019-02-26T17:18:21.246Z,43.10
2019-02-26T17:20:51.272Z,43.10
2019-02-26T17:23:21.697Z,43.20
2019-02-26T17:25:51.612Z,43.10
2019-02-26T17:28:21.731Z,43.20
2019-02-26T17:30:51.692Z,43.10
2019-02-26T17:33:21.567Z,43.20
2019-02-26T17:35:52.897Z,43.20
2019-02-26T17:38:22.882Z,43.20
2019-02-26T17:40:52.835Z,43.20
2019-02-26T17:43:25.078Z,43.30
2019-02-26T17:45:54.542Z,43.10
2019-02-26T17:48:24.399Z,43.20
2019-02-26T17:50:54.747Z,43.30
2019-02-26T17:53:27.676Z,43.40
2019-02-26T17:55:56.265Z,43.40
2019-02-26T17:58:27.567Z,43.40
2019-02-26T18:00:58.670Z,43.70
2019-02-26T18:03:28.628Z,43.10
2019-02-26T18:05:58.528Z,43.20
2019-02-26T18:08:28.420Z,43.10
2019-02-26T18:10:58.267Z,43.10
2019-02-26T18:13:28.211Z,43.00
2019-02-26T18:15:59.228Z,43.00
2019-02-26T18:18:29.752Z,43.00
2019-02-26T18:20:59.801Z,43.00
2019-02-26T18:23:29.689Z,43.00
2019-02-26T18:25:59.670Z,43.00
2019-02-26T18:28:29.599Z,43.00
2019-02-26T18:30:59.594Z,43.10
2019-02-26T18:33:30.820Z,43.30
2019-02-26T18:36:01.099Z,43.40
2019-02-26T18:38:32.041Z,43.50
2019-02-26T18:41:01.959Z,43.70
2019-02-26T18:43:31.998Z,43.90
2019-02-26T18:46:02.301Z,44.10
2019-02-26T18:48:32.190Z,44.20
2019-02-26T18:51:02.373Z,44.30
2019-02-26T18:53:33.100Z,44.50
2019-02-26T18:56:04.306Z,44.60
2019-02-26T18:58:34.971Z,44.70
2019-02-26T19:01:04.764Z,44.70
2019-02-26T19:03:34.905Z,44.80
2019-02-26T19:06:05.024Z,44.80
2019-02-26T19:08:39.144Z,44.80
2019-02-26T19:11:07.104Z,44.80
2019-02-26T19:13:37.097Z,45.60
2019-02-26T19:16:07.111Z,44.60
2019-02-26T19:18:38.471Z,44.60
2019-02-26T19:21:09.834Z,44.50
2019-02-26T19:23:39.726Z,44.50
2019-02-26T19:26:13.546Z,44.40
2019-02-26T19:28:41.391Z,44.30
2019-02-26T19:31:11.278Z,44.30
2019-02-26T19:33:41.223Z,44.20
2019-02-26T19:36:12.974Z,44.10
2019-02-26T19:38:42.926Z,44.00
2019-02-26T19:41:16.136Z,44.00
2019-02-26T19:43:46.036Z,44.00
2019-02-26T19:46:17.702Z,44.10
2019-02-26T19:48:47.585Z,44.10
2019-02-26T19:51:21.938Z,44.10
2019-02-26T19:53:49.389Z,44.10
2019-02-26T19:56:23.187Z,44.20
2019-02-26T19:58:50.921Z,44.20
2019-02-26T20:01:20.967Z,44.10
2019-02-26T20:03:50.985Z,44.10
2019-02-26T20:06:23.285Z,44.00
2019-02-26T20:08:52.729Z,44.10
2019-02-26T20:11:23.353Z,44.00
2019-02-26T20:13:53.408Z,44.00
2019-02-26T20:16:27.615Z,43.90
2019-02-26T20:18:56.747Z,44.00
2019-02-26T20:21:26.962Z,44.10
2019-02-26T20:23:57.265Z,43.90
2019-02-26T20:26:27.187Z,44.70
2019-02-26T20:28:57.082Z,43.90
2019-02-26T20:31:28.824Z,43.90
2019-02-26T20:33:58.537Z,44.00
2019-02-26T20:36:28.782Z,43.90
2019-02-26T20:38:58.767Z,43.90
2019-02-26T20:41:29.014Z,43.90
2019-02-26T20:43:59.040Z,43.80
2019-02-26T20:46:28.933Z,43.80
2019-02-26T20:48:58.800Z,43.80
2019-02-26T20:51:28.857Z,43.70
2019-02-26T20:53:59.315Z,43.80
2019-02-26T20:56:31.017Z,43.80
2019-02-26T20:59:01.262Z,43.80
2019-02-26T21:01:32.519Z,43.70
2019-02-26T21:04:03.255Z,43.80
2019-02-26T21:06:33.265Z,43.80
2019-02-26T21:09:07.190Z,43.70
2019-02-26T21:11:38.426Z,43.70
2019-02-26T21:14:08.357Z,43.70
2019-02-26T21:16:39.392Z,43.70
2019-02-26T21:19:09.931Z,43.60
2019-02-26T21:21:40.357Z,43.60
2019-02-26T21:24:10.451Z,43.70
2019-02-26T21:26:40.326Z,43.80
2019-02-26T21:29:11.914Z,43.70
2019-02-26T21:31:42.582Z,43.80
2019-02-26T21:34:12.565Z,44.00
2019-02-26T21:36:42.484Z,44.00
2019-02-26T21:39:12.434Z,44.10
2019-02-26T21:41:42.714Z,44.00
2019-02-26T21:44:12.595Z,44.00
2019-02-26T21:46:44.286Z,44.10
2019-02-26T21:49:14.333Z,44.00
2019-02-26T21:51:44.325Z,44.10
